createdAt,value
2019-02-21T00:04:48.429Z,35.10
2019-02-21T00:09:52.108Z,35.00
2019-02-21T00:14:55.884Z,35.00
2019-02-21T00:19:59.726Z,35.10
2019-02-21T00:25:03.364Z,35.10
2019-02-21T00:30:07.047Z,35.00
2019-02-21T00:35:10.839Z,35.00
2019-02-21T00:40:14.789Z,34.90
2019-02-21T00:45:18.462Z,34.90
2019-02-21T00:50:24.450Z,34.90
2019-02-21T00:55:28.245Z,34.80
2019-02-21T01:00:32.149Z,34.90
2019-02-21T01:05:36.957Z,34.80
2019-02-21T01:10:40.708Z,34.80
2019-02-21T01:15:44.830Z,34.80
2019-02-21T01:20:48.552Z,34.80
2019-02-21T01:25:52.223Z,34.90
2019-02-21T01:30:57.145Z,34.80
2019-02-21T01:36:01.213Z,34.80
2019-02-21T01:41:04.897Z,34.80
2019-02-21T01:46:08.593Z,34.80
2019-02-21T01:51:12.309Z,34.80
2019-02-21T01:56:15.974Z,34.80
2019-02-21T02:01:19.745Z,34.90
2019-02-21T02:06:23.478Z,34.80
2019-02-21T02:11:28.706Z,34.80
2019-02-21T02:16:32.475Z,34.80
2019-02-21T02:21:36.146Z,34.80
2019-02-21T02:26:39.897Z,34.70
2019-02-21T02:31:43.656Z,34.70
2019-02-21T02:36:49.549Z,34.70
2019-02-21T02:41:58.964Z,34.70
2019-02-21T02:47:03.119Z,34.70
2019-02-21T02:52:07.824Z,34.70
2019-02-21T02:57:13.794Z,34.70
2019-02-21T03:02:18.269Z,34.70
2019-02-21T03:07:21.942Z,34.70
2019-02-21T03:12:25.604Z,34.70
2019-02-21T03:17:29.348Z,34.80
2019-02-21T03:22:33.128Z,34.80
2019-02-21T03:27:37.110Z,34.80
2019-02-21T03:32:43.035Z,34.70
2019-02-21T03:37:46.808Z,34.70
2019-02-21T03:42:52.621Z,34.70
2019-02-21T03:47:56.291Z,34.80
2019-02-21T03:53:03.874Z,34.70
2019-02-21T03:58:07.623Z,34.70
2019-02-21T04:03:11.308Z,34.70
2019-02-21T04:08:17.866Z,34.80
2019-02-21T04:13:21.933Z,34.80
2019-02-21T04:18:25.800Z,34.70
2019-02-21T04:23:31.224Z,34.60
2019-02-21T04:28:34.927Z,34.70
2019-02-21T04:33:38.636Z,34.60
2019-02-21T04:38:42.337Z,34.60
2019-02-21T04:43:48.310Z,34.60
2019-02-21T04:48:52.014Z,34.60
2019-02-21T04:53:55.798Z,34.60
2019-02-21T04:59:00.799Z,34.60
2019-02-21T05:04:05.035Z,34.60
2019-02-21T05:09:09.006Z,34.60
2019-02-21T05:14:15.186Z,34.70
2019-02-21T05:19:18.964Z,34.60
2019-02-21T05:24:22.716Z,34.70
2019-02-21T05:29:29.855Z,34.80
2019-02-21T05:34:41.020Z,34.80
2019-02-21T05:39:53.708Z,34.80
2019-02-21T05:45:17.083Z,34.80
2019-02-21T05:50:34.733Z,34.90
2019-02-21T05:55:44.811Z,34.90
2019-02-21T06:01:07.863Z,35.00
2019-02-21T06:06:28.582Z,34.90
2019-02-21T06:11:48.461Z,34.90
2019-02-21T06:17:29.518Z,34.90
2019-02-21T06:22:53.317Z,34.90
2019-02-21T06:28:25.032Z,35.00
2019-02-21T06:33:28.792Z,35.00
2019-02-21T06:38:33.652Z,35.10
2019-02-21T06:43:37.950Z,35.20
2019-02-21T06:48:41.758Z,35.30
2019-02-21T06:53:45.496Z,35.30
2019-02-21T06:58:49.717Z,35.40
2019-02-21T07:03:54.357Z,35.40
2019-02-21T07:08:59.795Z,35.50
2019-02-21T07:14:04.875Z,35.50
2019-02-21T07:19:10.816Z,35.60
2019-02-21T07:24:14.971Z,35.60
2019-02-21T07:29:24.108Z,35.60
2019-02-21T07:34:30.312Z,35.60
2019-02-21T07:39:36.281Z,35.60
2019-02-21T07:44:39.135Z,35.70
2019-02-21T07:49:42.938Z,35.70
2019-02-21T07:54:49.379Z,35.70
2019-02-21T07:59:52.411Z,35.70
2019-02-21T08:04:56.113Z,35.60
2019-02-21T08:09:59.920Z,35.50
2019-02-21T08:15:07.241Z,35.60
2019-02-21T08:20:11.402Z,35.30
2019-02-21T08:25:15.620Z,35.10
2019-02-21T08:30:19.337Z,35.00
2019-02-21T08:35:23.190Z,34.90
2019-02-21T08:40:26.951Z,34.80
2019-02-21T08:45:30.932Z,34.80
2019-02-21T08:50:34.674Z,34.80
2019-02-21T08:55:40.383Z,34.80
2019-02-21T09:00:43.983Z,34.70
2019-02-21T09:05:50.359Z,34.80
2019-02-21T09:10:54.121Z,34.80
2019-02-21T09:15:57.898Z,34.80
2019-02-21T09:21:03.653Z,35.00
2019-02-21T09:26:07.393Z,35.00
2019-02-21T09:31:11.344Z,35.00
2019-02-21T09:36:15.499Z,35.00
2019-02-21T09:41:19.199Z,35.00
2019-02-21T09:46:26.103Z,35.10
2019-02-21T09:51:30.008Z,35.10
2019-02-21T09:56:33.775Z,35.10
2019-02-21T10:01:41.972Z,35.10
2019-02-21T10:06:45.964Z,35.10
2019-02-21T10:11:49.672Z,35.10
2019-02-21T10:16:53.617Z,35.20
2019-02-21T10:21:57.384Z,35.30
2019-02-21T10:27:01.382Z,35.40
2019-02-21T10:32:05.249Z,35.30
2019-02-21T10:37:13.621Z,35.40
2019-02-21T10:42:17.611Z,35.40
2019-02-21T10:47:21.434Z,35.50
2019-02-21T10:52:25.908Z,35.50
2019-02-21T10:57:29.697Z,35.50
2019-02-21T11:02:33.407Z,35.60
2019-02-21T11:07:39.226Z,35.60
2019-02-21T11:12:43.093Z,35.60
2019-02-21T11:17:47.050Z,35.60
2019-02-21T11:22:51.848Z,35.60
2019-02-21T11:27:55.522Z,35.50
2019-02-21T11:33:01.752Z,35.50
2019-02-21T11:38:05.840Z,35.50
2019-02-21T11:43:09.850Z,35.50
2019-02-21T11:48:13.696Z,35.50
2019-02-21T11:53:17.504Z,35.60
2019-02-21T11:58:21.500Z,35.40
2019-02-21T12:03:25.506Z,35.40
2019-02-21T12:08:29.188Z,35.40
2019-02-21T12:13:34.380Z,35.30
2019-02-21T12:18:38.356Z,35.30
2019-02-21T12:23:42.686Z,35.30
2019-02-21T12:28:46.471Z,35.40
2019-02-21T12:33:50.405Z,35.40
2019-02-21T12:38:54.563Z,35.30
2019-02-21T12:43:58.439Z,35.30
2019-02-21T12:49:02.228Z,35.40
2019-02-21T12:54:06.205Z,35.30
2019-02-21T12:59:10.091Z,35.30
2019-02-21T13:04:13.994Z,35.30
2019-02-21T13:09:18.673Z,35.30
2019-02-21T13:14:22.473Z,35.30
2019-02-21T13:19:26.654Z,35.40
2019-02-21T13:24:30.542Z,35.30
2019-02-21T13:29:34.656Z,35.30
2019-02-21T13:34:38.428Z,35.30
2019-02-21T13:39:42.134Z,35.30
2019-02-21T13:44:45.953Z,35.30
2019-02-21T13:49:53.859Z,35.40
2019-02-21T13:54:57.569Z,35.30
2019-02-21T14:00:01.268Z,35.30
2019-02-21T14:05:05.451Z,35.30
2019-02-21T14:10:10.231Z,35.30
2019-02-21T14:15:16.718Z,35.30
2019-02-21T14:20:23.764Z,35.30
2019-02-21T14:25:28.327Z,35.20
2019-02-21T14:30:32.960Z,35.10
2019-02-21T14:35:36.783Z,35.10
2019-02-21T14:40:40.593Z,35.10
2019-02-21T14:45:44.563Z,35.00
2019-02-21T14:50:48.461Z,34.90
2019-02-21T14:55:53.651Z,34.90
2019-02-21T15:00:57.659Z,34.80
2019-02-21T15:06:01.557Z,35.60
2019-02-21T15:11:05.831Z,34.80
2019-02-21T15:16:09.663Z,34.80
2019-02-21T15:21:13.389Z,34.80
2019-02-21T15:26:17.216Z,34.80
2019-02-21T15:31:21.004Z,34.80
2019-02-21T15:36:37.957Z,34.80
2019-02-21T15:41:34.878Z,34.70
2019-02-21T15:46:39.306Z,34.70
2019-02-21T15:51:43.398Z,34.80
2019-02-21T15:56:47.488Z,34.70
2019-02-21T16:01:51.603Z,34.70
2019-02-21T16:06:56.846Z,34.70
2019-02-21T16:12:01.053Z,34.70
2019-02-21T16:17:04.908Z,34.70
2019-02-21T16:22:10.523Z,34.70
2019-02-21T16:27:14.262Z,34.70
2019-02-21T16:32:19.527Z,34.70
2019-02-21T16:37:23.414Z,34.70
2019-02-21T16:42:27.281Z,34.70
2019-02-21T16:47:31.692Z,34.70
2019-02-21T16:52:36.814Z,34.70
2019-02-21T16:57:41.289Z,34.70
2019-02-21T17:02:45.082Z,34.70
2019-02-21T17:07:48.851Z,34.70
2019-02-21T17:12:55.067Z,34.70
2019-02-21T17:18:03.901Z,34.60
2019-02-21T17:23:04.928Z,34.60
2019-02-21T17:28:08.900Z,35.30
2019-02-21T17:33:13.273Z,34.70
2019-02-21T17:38:17.261Z,34.70
2019-02-21T17:43:21.729Z,34.80
2019-02-21T17:48:26.997Z,34.80
2019-02-21T17:53:30.765Z,34.80
2019-02-21T17:58:35.119Z,34.80
2019-02-21T18:03:39.135Z,34.90
2019-02-21T18:08:43.123Z,34.90
2019-02-21T18:13:47.018Z,35.00
2019-02-21T18:18:51.150Z,35.00
2019-02-21T18:23:54.991Z,35.10
2019-02-21T18:28:59.541Z,35.20
2019-02-21T18:34:03.523Z,35.20
2019-02-21T18:39:11.437Z,35.30
2019-02-21T18:44:15.369Z,35.30
2019-02-21T18:49:19.286Z,35.40
2019-02-21T18:54:23.096Z,35.50
2019-02-21T18:59:31.669Z,35.50
2019-02-21T19:04:33.281Z,35.60
2019-02-21T19:09:37.202Z,35.60
2019-02-21T19:14:40.970Z,35.70
2019-02-21T19:19:45.323Z,35.70
2019-02-21T19:24:50.568Z,35.70
2019-02-21T19:29:55.418Z,35.80
2019-02-21T19:35:03.141Z,35.80
2019-02-21T19:40:08.414Z,35.90
2019-02-21T19:45:14.353Z,35.90
2019-02-21T19:50:18.730Z,35.90
2019-02-21T19:55:25.530Z,35.90
2019-02-21T20:00:31.974Z,36.00
2019-02-21T20:05:38.777Z,36.00
2019-02-21T20:10:42.944Z,36.40
2019-02-21T20:15:50.604Z,36.50
2019-02-21T20:20:54.978Z,36.60
2019-02-21T20:25:59.519Z,36.70
2019-02-21T20:31:04.407Z,36.70
2019-02-21T20:36:08.450Z,36.80
2019-02-21T20:41:15.019Z,36.80
2019-02-21T20:46:18.930Z,36.90
2019-02-21T20:51:22.740Z,36.90
2019-02-21T20:56:46.065Z,37.00
2019-02-21T21:01:50.093Z,37.10
2019-02-21T21:06:54.282Z,37.20
2019-02-21T21:11:59.119Z,37.30
2019-02-21T21:17:03.888Z,37.50
2019-02-21T21:22:08.380Z,37.50
2019-02-21T21:27:12.486Z,37.80
2019-02-21T21:32:16.417Z,38.00
2019-02-21T21:37:21.501Z,38.20
2019-02-21T21:42:26.983Z,38.40
2019-02-21T21:47:30.699Z,38.40
2019-02-21T21:52:34.721Z,38.50
2019-02-21T21:57:38.459Z,38.50
2019-02-21T22:02:42.219Z,38.30
2019-02-21T22:07:48.932Z,38.20
2019-02-21T22:12:51.750Z,38.00
2019-02-21T22:17:55.546Z,37.90
2019-02-21T22:23:01.983Z,37.90
2019-02-21T22:28:06.026Z,37.80
2019-02-21T22:33:09.767Z,37.70
2019-02-21T22:38:13.575Z,37.60
2019-02-21T22:43:17.432Z,37.50
2019-02-21T22:48:21.196Z,37.50
2019-02-21T22:53:24.942Z,37.40
2019-02-21T22:58:28.739Z,37.40
2019-02-21T23:03:48.620Z,37.40
2019-02-21T23:08:52.879Z,37.30
2019-02-21T23:13:57.067Z,37.30
2019-02-21T23:19:00.778Z,37.20
2019-02-21T23:24:19.132Z,37.30
2019-02-21T23:29:22.236Z,37.20
2019-02-21T23:34:45.178Z,37.20
2019-02-21T23:39:48.880Z,37.20
2019-02-21T23:44:59.093Z,37.20
2019-02-21T23:50:02.899Z,37.20
2019-02-21T23:55:06.868Z,37.20
